sensor_id;sensor_type;location;lat;lon;timestamp;P1;durP1;ratioP1;P2;durP2;ratioP2
29044;SDS011;16133;49.486;12.176;2023-06-04T00:00:24;2.38;;;1.10;;
29044;SDS011;16133;49.486;12.176;2023-06-04T00:02:50;3.95;;;1.10;;
29044;SDS011;16133;49.486;12.176;2023-06-04T00:05:15;2.63;;;1.10;;
29044;SDS011;16133;49.486;12.176;2023-06-04T00:07:40;3.00;;;1.10;;
29044;SDS011;16133;49.486;12.176;2023-06-04T00:10:06;4.63;;;2.20;;
29044;SDS011;16133;49.486;12.176;2023-06-04T00:12:31;1.48;;;0.85;;
29044;SDS011;16133;49.486;12.176;2023-06-04T00:14:57;2.08;;;1.27;;
29044;SDS011;16133;49.486;12.176;2023-06-04T00:17:22;2.15;;;1.17;;
29044;SDS011;16133;49.486;12.176;2023-06-04T00:19:47;3.67;;;1.00;;
29044;SDS011;16133;49.486;12.176;2023-06-04T00:22:13;2.22;;;1.10;;
29044;SDS011;16133;49.486;12.176;2023-06-04T00:24:39;2.28;;;1.17;;
29044;SDS011;16133;49.486;12.176;2023-06-04T00:27:07;1.70;;;1.00;;
29044;SDS011;16133;49.486;12.176;2023-06-04T00:29:33;2.42;;;1.00;;
29044;SDS011;16133;49.486;12.176;2023-06-04T00:31:59;3.03;;;1.40;;
29044;SDS011;16133;49.486;12.176;2023-06-04T00:34:24;1.60;;;1.00;;
29044;SDS011;16133;49.486;12.176;2023-06-04T00:36:50;6.18;;;1.20;;
29044;SDS011;16133;49.486;12.176;2023-06-04T00:39:15;1.77;;;1.13;;
29044;SDS011;16133;49.486;12.176;2023-06-04T00:41:40;2.40;;;1.30;;
29044;SDS011;16133;49.486;12.176;2023-06-04T00:44:06;2.08;;;1.02;;
29044;SDS011;16133;49.486;12.176;2023-06-04T00:46:31;1.73;;;0.95;;
29044;SDS011;16133;49.486;12.176;2023-06-04T00:48:57;1.88;;;1.13;;
29044;SDS011;16133;49.486;12.176;2023-06-04T00:51:22;3.53;;;1.15;;
29044;SDS011;16133;49.486;12.176;2023-06-04T00:53:49;2.15;;;0.90;;
29044;SDS011;16133;49.486;12.176;2023-06-04T00:56:15;3.88;;;1.60;;
29044;SDS011;16133;49.486;12.176;2023-06-04T00:58:41;1.75;;;1.00;;
29044;SDS011;16133;49.486;12.176;2023-06-04T01:01:10;3.97;;;1.70;;
29044;SDS011;16133;49.486;12.176;2023-06-04T01:03:42;2.42;;;1.30;;
29044;SDS011;16133;49.486;12.176;2023-06-04T01:06:18;3.45;;;1.15;;
29044;SDS011;16133;49.486;12.176;2023-06-04T01:08:46;4.70;;;1.20;;
29044;SDS011;16133;49.486;12.176;2023-06-04T01:11:15;1.48;;;1.00;;
29044;SDS011;16133;49.486;12.176;2023-06-04T01:13:40;3.35;;;1.63;;
29044;SDS011;16133;49.486;12.176;2023-06-04T01:16:06;1.75;;;1.17;;
29044;SDS011;16133;49.486;12.176;2023-06-04T01:18:33;2.40;;;1.30;;
29044;SDS011;16133;49.486;12.176;2023-06-04T01:21:02;2.33;;;1.10;;
29044;SDS011;16133;49.486;12.176;2023-06-04T01:26:02;2.90;;;1.60;;
29044;SDS011;16133;49.486;12.176;2023-06-04T01:28:29;3.42;;;1.50;;
29044;SDS011;16133;49.486;12.176;2023-06-04T01:30:57;1.38;;;1.02;;
29044;SDS011;16133;49.486;12.176;2023-06-04T01:33:25;1.65;;;1.10;;
29044;SDS011;16133;49.486;12.176;2023-06-04T01:35:50;2.05;;;1.13;;
29044;SDS011;16133;49.486;12.176;2023-06-04T01:38:16;3.50;;;1.40;;
29044;SDS011;16133;49.486;12.176;2023-06-04T01:40:42;4.30;;;1.33;;
29044;SDS011;16133;49.486;12.176;2023-06-04T01:43:08;2.70;;;1.20;;
29044;SDS011;16133;49.486;12.176;2023-06-04T01:45:33;2.30;;;1.35;;
29044;SDS011;16133;49.486;12.176;2023-06-04T01:48:00;4.20;;;1.23;;
29044;SDS011;16133;49.486;12.176;2023-06-04T01:50:27;2.78;;;1.40;;
29044;SDS011;16133;49.486;12.176;2023-06-04T01:52:53;4.80;;;1.60;;
29044;SDS011;16133;49.486;12.176;2023-06-04T01:55:18;1.80;;;1.40;;
29044;SDS011;16133;49.486;12.176;2023-06-04T01:57:44;3.88;;;1.50;;
29044;SDS011;16133;49.486;12.176;2023-06-04T02:00:11;3.83;;;1.73;;
29044;SDS011;16133;49.486;12.176;2023-06-04T02:02:37;2.22;;;1.10;;
29044;SDS011;16133;49.486;12.176;2023-06-04T02:05:03;4.18;;;2.22;;
29044;SDS011;16133;49.486;12.176;2023-06-04T02:07:33;5.88;;;1.90;;
29044;SDS011;16133;49.486;12.176;2023-06-04T02:10:03;2.50;;;1.20;;
29044;SDS011;16133;49.486;12.176;2023-06-04T02:13:07;1.45;;;1.23;;
29044;SDS011;16133;49.486;12.176;2023-06-04T02:15:36;10.85;;;5.82;;
29044;SDS011;16133;49.486;12.176;2023-06-04T02:18:15;54.63;;;31.02;;
29044;SDS011;16133;49.486;12.176;2023-06-04T02:20:42;25.38;;;14.88;;
29044;SDS011;16133;49.486;12.176;2023-06-04T02:23:10;9.75;;;5.97;;
29044;SDS011;16133;49.486;12.176;2023-06-04T02:25:36;8.00;;;3.90;;
29044;SDS011;16133;49.486;12.176;2023-06-04T02:28:02;7.75;;;3.13;;
29044;SDS011;16133;49.486;12.176;2023-06-04T02:30:27;6.05;;;2.85;;
29044;SDS011;16133;49.486;12.176;2023-06-04T02:32:52;5.53;;;1.73;;
29044;SDS011;16133;49.486;12.176;2023-06-04T02:35:20;81.10;;;44.25;;
29044;SDS011;16133;49.486;12.176;2023-06-04T02:37:49;174.85;;;97.38;;
29044;SDS011;16133;49.486;12.176;2023-06-04T02:40:16;176.02;;;98.15;;
29044;SDS011;16133;49.486;12.176;2023-06-04T02:42:41;77.30;;;43.03;;
29044;SDS011;16133;49.486;12.176;2023-06-04T02:45:07;24.38;;;13.75;;
29044;SDS011;16133;49.486;12.176;2023-06-04T02:47:32;13.95;;;8.07;;
29044;SDS011;16133;49.486;12.176;2023-06-04T02:49:58;12.63;;;7.03;;
29044;SDS011;16133;49.486;12.176;2023-06-04T02:52:23;9.57;;;5.53;;
29044;SDS011;16133;49.486;12.176;2023-06-04T02:54:50;6.53;;;3.92;;
29044;SDS011;16133;49.486;12.176;2023-06-04T02:57:16;5.55;;;3.60;;
29044;SDS011;16133;49.486;12.176;2023-06-04T02:59:41;7.30;;;3.70;;
29044;SDS011;16133;49.486;12.176;2023-06-04T03:02:06;5.22;;;3.00;;
29044;SDS011;16133;49.486;12.176;2023-06-04T03:04:32;5.25;;;2.92;;
29044;SDS011;16133;49.486;12.176;2023-06-04T03:07:02;5.25;;;2.50;;
29044;SDS011;16133;49.486;12.176;2023-06-04T03:09:28;3.60;;;1.80;;
29044;SDS011;16133;49.486;12.176;2023-06-04T03:11:57;3.28;;;1.67;;
29044;SDS011;16133;49.486;12.176;2023-06-04T03:14:25;3.72;;;1.60;;
29044;SDS011;16133;49.486;12.176;2023-06-04T03:16:57;2.78;;;1.50;;
29044;SDS011;16133;49.486;12.176;2023-06-04T03:19:26;4.45;;;1.88;;
29044;SDS011;16133;49.486;12.176;2023-06-04T03:21:52;6.97;;;2.15;;
29044;SDS011;16133;49.486;12.176;2023-06-04T03:24:18;3.95;;;1.73;;
29044;SDS011;16133;49.486;12.176;2023-06-04T03:26:44;2.88;;;1.60;;
29044;SDS011;16133;49.486;12.176;2023-06-04T03:29:09;3.30;;;1.80;;
29044;SDS011;16133;49.486;12.176;2023-06-04T03:31:35;2.75;;;1.60;;
29044;SDS011;16133;49.486;12.176;2023-06-04T03:34:00;4.13;;;1.73;;
29044;SDS011;16133;49.486;12.176;2023-06-04T03:36:25;5.70;;;1.92;;
29044;SDS011;16133;49.486;12.176;2023-06-04T03:38:56;3.55;;;1.77;;
29044;SDS011;16133;49.486;12.176;2023-06-04T03:41:22;2.60;;;1.88;;
29044;SDS011;16133;49.486;12.176;2023-06-04T03:43:48;3.65;;;1.77;;
29044;SDS011;16133;49.486;12.176;2023-06-04T03:46:13;3.13;;;1.60;;
29044;SDS011;16133;49.486;12.176;2023-06-04T03:48:40;3.55;;;2.03;;
29044;SDS011;16133;49.486;12.176;2023-06-04T03:51:06;5.53;;;1.90;;
29044;SDS011;16133;49.486;12.176;2023-06-04T03:53:32;3.47;;;1.40;;
29044;SDS011;16133;49.486;12.176;2023-06-04T03:55:57;3.28;;;1.67;;
29044;SDS011;16133;49.486;12.176;2023-06-04T03:58:22;4.55;;;1.70;;
29044;SDS011;16133;49.486;12.176;2023-06-04T04:00:49;4.35;;;1.90;;
29044;SDS011;16133;49.486;12.176;2023-06-04T04:03:14;3.50;;;1.92;;
29044;SDS011;16133;49.486;12.176;2023-06-04T04:05:40;3.90;;;2.00;;
29044;SDS011;16133;49.486;12.176;2023-06-04T04:08:05;2.85;;;1.42;;
29044;SDS011;16133;49.486;12.176;2023-06-04T04:10:31;3.25;;;1.98;;
29044;SDS011;16133;49.486;12.176;2023-06-04T04:12:56;3.10;;;2.17;;
29044;SDS011;16133;49.486;12.176;2023-06-04T04:15:23;2.80;;;1.77;;
29044;SDS011;16133;49.486;12.176;2023-06-04T04:17:48;2.83;;;1.33;;
29044;SDS011;16133;49.486;12.176;2023-06-04T04:20:13;3.40;;;2.00;;
29044;SDS011;16133;49.486;12.176;2023-06-04T04:22:42;2.95;;;1.83;;
29044;SDS011;16133;49.486;12.176;2023-06-04T04:25:07;4.75;;;1.77;;
29044;SDS011;16133;49.486;12.176;2023-06-04T04:27:33;2.95;;;1.63;;
29044;SDS011;16133;49.486;12.176;2023-06-04T04:30:00;4.97;;;1.85;;
29044;SDS011;16133;49.486;12.176;2023-06-04T04:32:25;4.20;;;1.85;;
29044;SDS011;16133;49.486;12.176;2023-06-04T04:34:52;2.72;;;1.70;;
29044;SDS011;16133;49.486;12.176;2023-06-04T04:37:19;2.15;;;1.35;;
29044;SDS011;16133;49.486;12.176;2023-06-04T04:39:46;3.42;;;2.10;;
29044;SDS011;16133;49.486;12.176;2023-06-04T04:42:12;4.75;;;2.05;;
29044;SDS011;16133;49.486;12.176;2023-06-04T04:44:37;2.88;;;1.58;;
29044;SDS011;16133;49.486;12.176;2023-06-04T04:47:02;2.75;;;1.45;;
29044;SDS011;16133;49.486;12.176;2023-06-04T04:49:28;3.97;;;1.92;;
29044;SDS011;16133;49.486;12.176;2023-06-04T04:51:53;2.65;;;1.60;;
29044;SDS011;16133;49.486;12.176;2023-06-04T04:54:18;2.78;;;1.30;;
29044;SDS011;16133;49.486;12.176;2023-06-04T04:56:44;1.73;;;1.30;;
29044;SDS011;16133;49.486;12.176;2023-06-04T04:59:09;3.42;;;1.42;;
29044;SDS011;16133;49.486;12.176;2023-06-04T05:01:34;2.45;;;1.63;;
29044;SDS011;16133;49.486;12.176;2023-06-04T05:04:00;2.55;;;1.38;;
29044;SDS011;16133;49.486;12.176;2023-06-04T05:06:25;3.17;;;2.13;;
29044;SDS011;16133;49.486;12.176;2023-06-04T05:08:50;2.05;;;1.05;;
29044;SDS011;16133;49.486;12.176;2023-06-04T05:11:16;1.88;;;1.17;;
29044;SDS011;16133;49.486;12.176;2023-06-04T05:13:41;2.30;;;1.40;;
29044;SDS011;16133;49.486;12.176;2023-06-04T05:16:07;5.68;;;1.85;;
29044;SDS011;16133;49.486;12.176;2023-06-04T05:18:33;3.70;;;1.73;;
29044;SDS011;16133;49.486;12.176;2023-06-04T05:20:59;4.53;;;1.70;;
29044;SDS011;16133;49.486;12.176;2023-06-04T05:23:29;1.40;;;1.20;;
29044;SDS011;16133;49.486;12.176;2023-06-04T05:25:59;2.58;;;1.42;;
29044;SDS011;16133;49.486;12.176;2023-06-04T05:28:25;2.70;;;1.60;;
29044;SDS011;16133;49.486;12.176;2023-06-04T05:30:51;1.83;;;1.38;;
29044;SDS011;16133;49.486;12.176;2023-06-04T05:33:17;2.63;;;1.40;;
29044;SDS011;16133;49.486;12.176;2023-06-04T05:35:52;3.45;;;1.50;;
29044;SDS011;16133;49.486;12.176;2023-06-04T05:38:17;2.72;;;1.40;;
29044;SDS011;16133;49.486;12.176;2023-06-04T05:40:50;3.97;;;1.67;;
29044;SDS011;16133;49.486;12.176;2023-06-04T05:43:17;1.77;;;1.27;;
29044;SDS011;16133;49.486;12.176;2023-06-04T05:45:43;3.78;;;1.83;;
29044;SDS011;16133;49.486;12.176;2023-06-04T05:48:08;2.20;;;1.20;;
29044;SDS011;16133;49.486;12.176;2023-06-04T05:50:34;1.35;;;1.20;;
29044;SDS011;16133;49.486;12.176;2023-06-04T05:52:59;3.55;;;1.67;;
29044;SDS011;16133;49.486;12.176;2023-06-04T05:55:24;1.60;;;1.35;;
29044;SDS011;16133;49.486;12.176;2023-06-04T05:57:50;2.63;;;1.30;;
29044;SDS011;16133;49.486;12.176;2023-06-04T06:00:18;2.03;;;1.55;;
29044;SDS011;16133;49.486;12.176;2023-06-04T06:02:43;2.65;;;1.70;;
29044;SDS011;16133;49.486;12.176;2023-06-04T06:05:10;3.83;;;1.63;;
29044;SDS011;16133;49.486;12.176;2023-06-04T06:07:35;1.77;;;1.40;;
29044;SDS011;16133;49.486;12.176;2023-06-04T06:10:01;1.52;;;1.20;;
29044;SDS011;16133;49.486;12.176;2023-06-04T06:12:27;3.58;;;1.95;;
29044;SDS011;16133;49.486;12.176;2023-06-04T06:14:53;3.70;;;1.50;;
29044;SDS011;16133;49.486;12.176;2023-06-04T06:17:18;3.13;;;1.63;;
29044;SDS011;16133;49.486;12.176;2023-06-04T06:19:44;3.67;;;1.52;;
29044;SDS011;16133;49.486;12.176;2023-06-04T06:22:09;3.13;;;1.60;;
29044;SDS011;16133;49.486;12.176;2023-06-04T06:24:35;2.33;;;1.55;;
29044;SDS011;16133;49.486;12.176;2023-06-04T06:27:01;2.83;;;1.80;;
29044;SDS011;16133;49.486;12.176;2023-06-04T06:29:26;3.03;;;1.75;;
29044;SDS011;16133;49.486;12.176;2023-06-04T06:31:51;1.65;;;1.40;;
29044;SDS011;16133;49.486;12.176;2023-06-04T06:34:17;2.35;;;1.52;;
29044;SDS011;16133;49.486;12.176;2023-06-04T06:36:42;2.30;;;1.50;;
29044;SDS011;16133;49.486;12.176;2023-06-04T06:39:09;3.67;;;1.60;;
29044;SDS011;16133;49.486;12.176;2023-06-04T06:41:35;5.10;;;1.67;;
29044;SDS011;16133;49.486;12.176;2023-06-04T06:44:03;3.75;;;1.52;;
29044;SDS011;16133;49.486;12.176;2023-06-04T06:46:28;3.50;;;1.88;;
29044;SDS011;16133;49.486;12.176;2023-06-04T06:48:54;2.88;;;1.48;;
29044;SDS011;16133;49.486;12.176;2023-06-04T06:51:19;2.67;;;1.60;;
29044;SDS011;16133;49.486;12.176;2023-06-04T06:53:45;3.88;;;1.58;;
29044;SDS011;16133;49.486;12.176;2023-06-04T06:56:10;1.65;;;1.20;;
29044;SDS011;16133;49.486;12.176;2023-06-04T06:58:36;3.33;;;1.55;;
29044;SDS011;16133;49.486;12.176;2023-06-04T07:01:01;2.60;;;1.90;;
29044;SDS011;16133;49.486;12.176;2023-06-04T07:03:27;4.55;;;1.67;;
29044;SDS011;16133;49.486;12.176;2023-06-04T07:05:53;3.63;;;1.98;;
29044;SDS011;16133;49.486;12.176;2023-06-04T07:08:18;2.90;;;1.60;;
29044;SDS011;16133;49.486;12.176;2023-06-04T07:10:44;2.72;;;1.30;;
29044;SDS011;16133;49.486;12.176;2023-06-04T07:13:10;6.55;;;1.92;;
29044;SDS011;16133;49.486;12.176;2023-06-04T07:15:36;4.20;;;1.60;;
29044;SDS011;16133;49.486;12.176;2023-06-04T07:18:01;1.88;;;1.17;;
29044;SDS011;16133;49.486;12.176;2023-06-04T07:20:27;4.88;;;1.88;;
29044;SDS011;16133;49.486;12.176;2023-06-04T07:22:52;3.38;;;1.80;;
29044;SDS011;16133;49.486;12.176;2023-06-04T07:25:17;2.88;;;1.70;;
29044;SDS011;16133;49.486;12.176;2023-06-04T07:27:43;2.85;;;1.80;;
29044;SDS011;16133;49.486;12.176;2023-06-04T07:30:09;2.60;;;1.50;;
29044;SDS011;16133;49.486;12.176;2023-06-04T07:32:34;4.40;;;1.77;;
29044;SDS011;16133;49.486;12.176;2023-06-04T07:35:00;4.75;;;1.75;;
29044;SDS011;16133;49.486;12.176;2023-06-04T07:37:25;2.83;;;1.58;;
29044;SDS011;16133;49.486;12.176;2023-06-04T07:39:50;2.58;;;1.70;;
29044;SDS011;16133;49.486;12.176;2023-06-04T07:42:16;3.85;;;1.75;;
29044;SDS011;16133;49.486;12.176;2023-06-04T07:44:41;3.75;;;1.70;;
29044;SDS011;16133;49.486;12.176;2023-06-04T07:47:06;2.55;;;1.42;;
29044;SDS011;16133;49.486;12.176;2023-06-04T07:49:32;3.00;;;1.88;;
29044;SDS011;16133;49.486;12.176;2023-06-04T07:51:57;2.70;;;1.90;;
29044;SDS011;16133;49.486;12.176;2023-06-04T07:54:22;2.92;;;2.10;;
29044;SDS011;16133;49.486;12.176;2023-06-04T07:56:48;1.60;;;1.42;;
29044;SDS011;16133;49.486;12.176;2023-06-04T07:59:14;1.67;;;1.30;;
29044;SDS011;16133;49.486;12.176;2023-06-04T08:01:39;2.90;;;2.00;;
29044;SDS011;16133;49.486;12.176;2023-06-04T08:04:05;5.68;;;1.80;;
29044;SDS011;16133;49.486;12.176;2023-06-04T08:06:30;2.88;;;1.75;;
29044;SDS011;16133;49.486;12.176;2023-06-04T08:08:56;4.63;;;1.92;;
29044;SDS011;16133;49.486;12.176;2023-06-04T08:11:21;2.40;;;1.77;;
29044;SDS011;16133;49.486;12.176;2023-06-04T08:13:47;2.17;;;1.50;;
29044;SDS011;16133;49.486;12.176;2023-06-04T08:16:13;3.53;;;1.65;;
29044;SDS011;16133;49.486;12.176;2023-06-04T08:18:42;3.10;;;1.83;;
29044;SDS011;16133;49.486;12.176;2023-06-04T08:21:10;2.75;;;1.90;;
29044;SDS011;16133;49.486;12.176;2023-06-04T08:23:39;3.58;;;1.80;;
29044;SDS011;16133;49.486;12.176;2023-06-04T08:26:05;3.58;;;1.77;;
29044;SDS011;16133;49.486;12.176;2023-06-04T08:28:31;8.20;;;1.90;;
29044;SDS011;16133;49.486;12.176;2023-06-04T08:30:56;4.40;;;2.30;;
29044;SDS011;16133;49.486;12.176;2023-06-04T08:33:22;5.63;;;1.65;;
29044;SDS011;16133;49.486;12.176;2023-06-04T08:35:47;6.63;;;1.83;;
29044;SDS011;16133;49.486;12.176;2023-06-04T08:38:12;2.70;;;2.00;;
29044;SDS011;16133;49.486;12.176;2023-06-04T08:40:38;3.03;;;1.65;;
29044;SDS011;16133;49.486;12.176;2023-06-04T08:43:03;2.60;;;1.85;;
29044;SDS011;16133;49.486;12.176;2023-06-04T08:45:29;4.03;;;2.03;;
29044;SDS011;16133;49.486;12.176;2023-06-04T08:48:03;3.70;;;1.67;;
29044;SDS011;16133;49.486;12.176;2023-06-04T08:50:32;4.38;;;1.80;;
29044;SDS011;16133;49.486;12.176;2023-06-04T08:52:58;2.40;;;1.52;;
29044;SDS011;16133;49.486;12.176;2023-06-04T08:55:23;2.35;;;1.75;;
29044;SDS011;16133;49.486;12.176;2023-06-04T08:57:49;4.40;;;1.70;;
29044;SDS011;16133;49.486;12.176;2023-06-04T09:00:16;3.67;;;2.00;;
29044;SDS011;16133;49.486;12.176;2023-06-04T09:02:43;6.82;;;1.77;;
29044;SDS011;16133;49.486;12.176;2023-06-04T09:05:09;2.83;;;1.65;;
29044;SDS011;16133;49.486;12.176;2023-06-04T09:07:44;3.92;;;1.85;;
29044;SDS011;16133;49.486;12.176;2023-06-04T09:10:11;5.20;;;1.80;;
29044;SDS011;16133;49.486;12.176;2023-06-04T09:12:42;3.13;;;1.70;;
29044;SDS011;16133;49.486;12.176;2023-06-04T09:15:09;3.38;;;1.95;;
29044;SDS011;16133;49.486;12.176;2023-06-04T09:17:35;3.42;;;1.80;;
29044;SDS011;16133;49.486;12.176;2023-06-04T09:20:00;3.05;;;2.03;;
29044;SDS011;16133;49.486;12.176;2023-06-04T09:22:36;2.88;;;2.00;;
29044;SDS011;16133;49.486;12.176;2023-06-04T09:25:06;3.60;;;1.75;;
29044;SDS011;16133;49.486;12.176;2023-06-04T09:27:38;5.33;;;2.43;;
29044;SDS011;16133;49.486;12.176;2023-06-04T09:30:05;5.10;;;2.45;;
29044;SDS011;16133;49.486;12.176;2023-06-04T09:32:33;2.90;;;1.75;;
29044;SDS011;16133;49.486;12.176;2023-06-04T09:35:11;2.78;;;2.05;;
29044;SDS011;16133;49.486;12.176;2023-06-04T09:37:41;3.72;;;1.77;;
29044;SDS011;16133;49.486;12.176;2023-06-04T09:40:08;2.38;;;1.80;;
29044;SDS011;16133;49.486;12.176;2023-06-04T09:42:47;5.53;;;2.45;;
29044;SDS011;16133;49.486;12.176;2023-06-04T09:45:28;6.22;;;1.90;;
29044;SDS011;16133;49.486;12.176;2023-06-04T09:48:01;5.32;;;1.58;;
29044;SDS011;16133;49.486;12.176;2023-06-04T09:50:29;4.95;;;1.83;;
29044;SDS011;16133;49.486;12.176;2023-06-04T09:52:57;3.97;;;1.75;;
29044;SDS011;16133;49.486;12.176;2023-06-04T09:55:22;2.53;;;1.52;;
29044;SDS011;16133;49.486;12.176;2023-06-04T09:57:48;3.33;;;2.20;;
29044;SDS011;16133;49.486;12.176;2023-06-04T10:00:18;5.35;;;3.05;;
29044;SDS011;16133;49.486;12.176;2023-06-04T10:05:13;3.45;;;1.75;;
29044;SDS011;16133;49.486;12.176;2023-06-04T10:07:43;3.42;;;2.17;;
29044;SDS011;16133;49.486;12.176;2023-06-04T10:10:30;3.88;;;1.77;;
29044;SDS011;16133;49.486;12.176;2023-06-04T10:13:05;2.28;;;2.03;;
29044;SDS011;16133;49.486;12.176;2023-06-04T10:15:35;3.60;;;2.15;;
29044;SDS011;16133;49.486;12.176;2023-06-04T10:18:01;23.80;;;14.90;;
29044;SDS011;16133;49.486;12.176;2023-06-04T10:20:27;6.88;;;2.95;;
29044;SDS011;16133;49.486;12.176;2023-06-04T10:22:53;6.07;;;2.25;;
29044;SDS011;16133;49.486;12.176;2023-06-04T10:25:20;3.90;;;2.40;;
29044;SDS011;16133;49.486;12.176;2023-06-04T10:27:45;3.22;;;2.08;;
29044;SDS011;16133;49.486;12.176;2023-06-04T10:30:11;3.92;;;1.63;;
29044;SDS011;16133;49.486;12.176;2023-06-04T10:32:37;4.82;;;2.00;;
29044;SDS011;16133;49.486;12.176;2023-06-04T10:35:03;4.57;;;1.90;;
29044;SDS011;16133;49.486;12.176;2023-06-04T10:37:29;5.03;;;1.92;;
29044;SDS011;16133;49.486;12.176;2023-06-04T10:39:55;2.53;;;1.60;;
29044;SDS011;16133;49.486;12.176;2023-06-04T10:42:22;3.63;;;1.85;;
29044;SDS011;16133;49.486;12.176;2023-06-04T10:44:49;3.08;;;1.88;;
29044;SDS011;16133;49.486;12.176;2023-06-04T10:47:22;5.63;;;2.00;;
29044;SDS011;16133;49.486;12.176;2023-06-04T10:49:53;4.57;;;1.77;;
29044;SDS011;16133;49.486;12.176;2023-06-04T10:52:20;4.43;;;2.20;;
29044;SDS011;16133;49.486;12.176;2023-06-04T10:54:46;2.53;;;1.70;;
29044;SDS011;16133;49.486;12.176;2023-06-04T10:57:17;3.58;;;2.05;;
29044;SDS011;16133;49.486;12.176;2023-06-04T10:59:59;3.80;;;1.85;;
29044;SDS011;16133;49.486;12.176;2023-06-04T11:02:25;4.13;;;1.88;;
29044;SDS011;16133;49.486;12.176;2023-06-04T11:05:01;3.15;;;1.50;;
29044;SDS011;16133;49.486;12.176;2023-06-04T11:07:27;3.58;;;1.85;;
29044;SDS011;16133;49.486;12.176;2023-06-04T11:09:53;2.05;;;1.80;;
29044;SDS011;16133;49.486;12.176;2023-06-04T11:12:18;8.70;;;2.15;;
29044;SDS011;16133;49.486;12.176;2023-06-04T11:14:54;4.47;;;1.75;;
29044;SDS011;16133;49.486;12.176;2023-06-04T11:17:20;3.05;;;2.10;;
29044;SDS011;16133;49.486;12.176;2023-06-04T11:19:45;8.73;;;2.65;;
29044;SDS011;16133;49.486;12.176;2023-06-04T11:22:11;6.57;;;1.80;;
29044;SDS011;16133;49.486;12.176;2023-06-04T11:24:39;3.72;;;1.65;;
29044;SDS011;16133;49.486;12.176;2023-06-04T11:27:05;5.60;;;2.10;;
29044;SDS011;16133;49.486;12.176;2023-06-04T11:29:30;2.95;;;2.10;;
29044;SDS011;16133;49.486;12.176;2023-06-04T11:31:57;4.05;;;1.80;;
29044;SDS011;16133;49.486;12.176;2023-06-04T11:36:48;4.78;;;1.75;;
29044;SDS011;16133;49.486;12.176;2023-06-04T11:39:14;5.53;;;1.90;;
29044;SDS011;16133;49.486;12.176;2023-06-04T11:41:40;3.55;;;1.73;;
29044;SDS011;16133;49.486;12.176;2023-06-04T11:44:06;2.85;;;1.70;;
29044;SDS011;16133;49.486;12.176;2023-06-04T11:46:32;4.32;;;1.88;;
29044;SDS011;16133;49.486;12.176;2023-06-04T11:48:58;2.67;;;2.10;;
29044;SDS011;16133;49.486;12.176;2023-06-04T11:51:23;3.55;;;2.03;;
29044;SDS011;16133;49.486;12.176;2023-06-04T11:53:49;3.70;;;1.75;;
29044;SDS011;16133;49.486;12.176;2023-06-04T11:56:15;5.30;;;1.90;;
29044;SDS011;16133;49.486;12.176;2023-06-04T11:58:42;3.17;;;1.83;;
29044;SDS011;16133;49.486;12.176;2023-06-04T12:01:08;6.28;;;1.85;;
29044;SDS011;16133;49.486;12.176;2023-06-04T12:03:34;4.90;;;2.10;;
29044;SDS011;16133;49.486;12.176;2023-06-04T12:08:58;5.47;;;2.55;;
29044;SDS011;16133;49.486;12.176;2023-06-04T12:11:33;3.50;;;2.35;;
29044;SDS011;16133;49.486;12.176;2023-06-04T12:14:00;3.80;;;2.20;;
29044;SDS011;16133;49.486;12.176;2023-06-04T12:16:29;3.17;;;1.80;;
29044;SDS011;16133;49.486;12.176;2023-06-04T12:19:07;6.13;;;2.03;;
29044;SDS011;16133;49.486;12.176;2023-06-04T12:21:37;4.75;;;2.17;;
29044;SDS011;16133;49.486;12.176;2023-06-04T12:24:07;3.05;;;1.77;;
29044;SDS011;16133;49.486;12.176;2023-06-04T12:26:36;2.75;;;1.70;;
29044;SDS011;16133;49.486;12.176;2023-06-04T12:29:09;3.53;;;2.08;;
29044;SDS011;16133;49.486;12.176;2023-06-04T12:31:39;5.57;;;2.10;;
29044;SDS011;16133;49.486;12.176;2023-06-04T12:34:09;3.13;;;1.75;;
29044;SDS011;16133;49.486;12.176;2023-06-04T12:36:36;3.63;;;2.22;;
29044;SDS011;16133;49.486;12.176;2023-06-04T12:39:03;3.13;;;2.05;;
29044;SDS011;16133;49.486;12.176;2023-06-04T12:41:30;3.97;;;2.10;;
29044;SDS011;16133;49.486;12.176;2023-06-04T12:43:56;5.05;;;2.05;;
29044;SDS011;16133;49.486;12.176;2023-06-04T12:46:22;3.72;;;2.13;;
29044;SDS011;16133;49.486;12.176;2023-06-04T12:48:51;2.65;;;1.95;;
29044;SDS011;16133;49.486;12.176;2023-06-04T12:51:18;2.95;;;2.15;;
29044;SDS011;16133;49.486;12.176;2023-06-04T12:53:43;4.65;;;2.03;;
29044;SDS011;16133;49.486;12.176;2023-06-04T12:56:09;3.78;;;2.05;;
29044;SDS011;16133;49.486;12.176;2023-06-04T12:58:35;3.33;;;2.10;;
29044;SDS011;16133;49.486;12.176;2023-06-04T13:01:01;3.50;;;2.05;;
29044;SDS011;16133;49.486;12.176;2023-06-04T13:03:26;3.40;;;1.92;;
29044;SDS011;16133;49.486;12.176;2023-06-04T13:05:52;2.70;;;1.80;;
29044;SDS011;16133;49.486;12.176;2023-06-04T13:08:21;4.15;;;2.10;;
29044;SDS011;16133;49.486;12.176;2023-06-04T13:10:47;2.85;;;2.13;;
29044;SDS011;16133;49.486;12.176;2023-06-04T13:13:14;3.85;;;2.33;;
29044;SDS011;16133;49.486;12.176;2023-06-04T13:15:43;3.40;;;2.22;;
29044;SDS011;16133;49.486;12.176;2023-06-04T13:18:09;3.55;;;2.10;;
29044;SDS011;16133;49.486;12.176;2023-06-04T13:20:39;6.95;;;2.15;;
29044;SDS011;16133;49.486;12.176;2023-06-04T13:23:06;6.65;;;2.72;;
29044;SDS011;16133;49.486;12.176;2023-06-04T13:25:32;6.28;;;2.22;;
29044;SDS011;16133;49.486;12.176;2023-06-04T13:27:58;3.05;;;2.00;;
29044;SDS011;16133;49.486;12.176;2023-06-04T13:30:24;2.72;;;2.00;;
29044;SDS011;16133;49.486;12.176;2023-06-04T13:32:50;4.28;;;2.13;;
29044;SDS011;16133;49.486;12.176;2023-06-04T13:35:15;3.13;;;2.10;;
29044;SDS011;16133;49.486;12.176;2023-06-04T13:37:41;5.10;;;2.20;;
29044;SDS011;16133;49.486;12.176;2023-06-04T13:40:06;6.45;;;2.03;;
29044;SDS011;16133;49.486;12.176;2023-06-04T13:42:32;5.30;;;2.00;;
29044;SDS011;16133;49.486;12.176;2023-06-04T13:44:58;4.05;;;2.45;;
29044;SDS011;16133;49.486;12.176;2023-06-04T13:47:24;3.13;;;2.03;;
29044;SDS011;16133;49.486;12.176;2023-06-04T13:49:49;6.13;;;2.20;;
29044;SDS011;16133;49.486;12.176;2023-06-04T13:52:15;4.32;;;2.33;;
29044;SDS011;16133;49.486;12.176;2023-06-04T13:54:41;3.22;;;1.75;;
29044;SDS011;16133;49.486;12.176;2023-06-04T13:57:06;3.45;;;1.98;;
29044;SDS011;16133;49.486;12.176;2023-06-04T13:59:32;3.53;;;2.22;;
29044;SDS011;16133;49.486;12.176;2023-06-04T14:01:59;4.25;;;2.53;;
29044;SDS011;16133;49.486;12.176;2023-06-04T14:04:24;3.03;;;1.85;;
29044;SDS011;16133;49.486;12.176;2023-06-04T14:06:50;4.18;;;2.50;;
29044;SDS011;16133;49.486;12.176;2023-06-04T14:09:15;2.55;;;1.67;;
29044;SDS011;16133;49.486;12.176;2023-06-04T14:11:41;4.65;;;2.42;;
29044;SDS011;16133;49.486;12.176;2023-06-04T14:14:07;2.78;;;2.15;;
29044;SDS011;16133;49.486;12.176;2023-06-04T14:16:32;2.85;;;1.80;;
29044;SDS011;16133;49.486;12.176;2023-06-04T14:18:58;3.88;;;2.20;;
29044;SDS011;16133;49.486;12.176;2023-06-04T14:21:24;9.13;;;2.67;;
29044;SDS011;16133;49.486;12.176;2023-06-04T14:23:50;3.22;;;1.98;;
29044;SDS011;16133;49.486;12.176;2023-06-04T14:26:16;4.15;;;2.08;;
29044;SDS011;16133;49.486;12.176;2023-06-04T14:28:42;3.10;;;2.00;;
29044;SDS011;16133;49.486;12.176;2023-06-04T14:31:08;9.73;;;2.35;;
29044;SDS011;16133;49.486;12.176;2023-06-04T14:33:34;4.30;;;1.92;;
29044;SDS011;16133;49.486;12.176;2023-06-04T14:36:02;4.68;;;2.17;;
29044;SDS011;16133;49.486;12.176;2023-06-04T14:38:28;3.75;;;1.92;;
29044;SDS011;16133;49.486;12.176;2023-06-04T14:40:53;4.05;;;2.58;;